Time;durP1;ratioP1;P1;durP2;ratioP2;P2;SDS_P1;SDS_P2;PMS_P1;PMS_P2;Temp;Humidity;BMP_temperature;BMP_pressure;BME280_temperature;BME280_humidity;BME280_pressure;Samples;Min_cycle;Max_cycle;Signal;HPM_P1;HPM_P2
2021/09/26 00:00:13;;;;;;;;;24.50;23.75;;;;;21.29;63.96;100801.53;2081172;28;46404;-61
2021/09/26 00:01:13;;;;;;;;;24.60;23.40;;;;;21.29;63.66;100798.81;2077988;28;47475;-61
2021/09/26 00:02:16;;;;;;;;;23.50;23.50;;;;;21.29;63.35;100794.28;2090564;28;47513;-61
2021/09/26 00:03:16;;;;;;;;;27.60;25.40;;;;;21.28;63.94;100789.88;2081983;28;48449;-61
2021/09/26 00:04:17;;;;;;;;;21.25;21.25;;;;;21.28;63.85;100786.31;2082452;28;46301;-61
2021/09/26 00:05:18;;;;;;;;;22.40;21.20;;;;;21.28;63.46;100791.69;2082746;28;47304;-62
2021/09/26 00:06:19;;;;;;;;;20.25;20.25;;;;;21.27;63.93;100787.28;2082906;28;47290;-61
2021/09/26 00:07:19;;;;;;;;;23.40;21.80;;;;;21.26;63.46;100789.09;2082920;28;48055;-61
2021/09/26 00:08:20;;;;;;;;;22.25;20.50;;;;;21.25;63.31;100781.97;2082954;28;46160;-62
2021/09/26 00:09:20;;;;;;;;;25.00;22.75;;;;;21.25;63.64;100781.97;2082046;28;48044;-62
2021/09/26 00:10:21;;;;;;;;;23.75;22.00;;;;;21.25;63.96;100790.06;2074135;28;48115;-62
2021/09/26 00:11:22;;;;;;;;;24.75;23.25;;;;;21.24;63.39;100780.22;2073096;28;47659;-62
2021/09/26 00:12:22;;;;;;;;;23.60;23.40;;;;;21.22;63.50;100787.53;2081330;28;48470;-62
2021/09/26 00:13:23;;;;;;;;;24.50;22.75;;;;;21.21;63.51;100788.47;2085584;28;47083;-63
2021/09/26 00:14:23;;;;;;;;;21.75;21.25;;;;;21.21;63.83;100790.31;2088995;28;47605;-62
2021/09/26 00:15:25;;;;;;;;;26.25;24.00;;;;;21.20;63.80;100794.84;2074164;28;47534;-62
2021/09/26 00:16:25;;;;;;;;;24.40;23.20;;;;;21.19;63.40;100787.72;2070919;28;47403;-62
2021/09/26 00:17:26;;;;;;;;;23.50;21.25;;;;;21.18;63.34;100791.38;2082076;28;47019;-62
2021/09/26 00:18:26;;;;;;;;;23.50;22.75;;;;;21.17;63.35;100795.91;2083022;28;47245;-62
2021/09/26 00:19:27;;;;;;;;;24.75;24.00;;;;;21.17;63.38;100800.44;2082808;28;47328;-62
2021/09/26 00:20:27;;;;;;;;;23.75;21.25;;;;;21.16;63.73;100802.28;2083107;28;47417;-63
2021/09/26 00:21:28;;;;;;;;;22.25;20.25;;;;;21.15;63.44;100805.09;2082091;28;47330;-62
2021/09/26 00:22:28;;;;;;;;;20.75;20.00;;;;;21.14;63.36;100803.34;2083476;28;48427;-62
2021/09/26 00:23:32;;;;;;;;;20.50;20.25;;;;;21.15;63.50;100810.47;2091147;28;48216;-62
2021/09/26 00:24:32;;;;;;;;;26.00;24.80;;;;;21.13;63.48;100798.94;2085131;28;47504;-62
2021/09/26 00:25:33;;;;;;;;;24.25;21.25;;;;;21.12;63.77;100799.91;2082197;28;47197;-62
2021/09/26 00:26:33;;;;;;;;;24.00;22.25;;;;;21.11;63.84;100800.88;2082423;28;47289;-62
2021/09/26 00:27:34;;;;;;;;;18.25;18.25;;;;;21.10;63.38;100805.41;2090624;28;47192;-62
2021/09/26 00:28:36;;;;;;;;;22.25;20.50;;;;;21.09;63.84;100797.41;2083080;28;45153;-62
2021/09/26 00:29:37;;;;;;;;;26.60;24.20;;;;;21.08;63.94;100796.50;2082569;28;48413;-62
2021/09/26 00:30:37;;;;;;;;;22.80;22.40;;;;;21.08;63.36;100795.63;2082853;28;47349;-62
2021/09/26 00:31:38;;;;;;;;;22.25;21.25;;;;;21.07;64.17;100802.88;2082286;28;46796;-62
2021/09/26 00:32:39;;;;;;;;;23.25;22.50;;;;;21.06;64.03;100798.44;2082350;28;45253;-62
2021/09/26 00:33:40;;;;;;;;;20.80;20.00;;;;;21.07;63.95;100796.59;2082843;28;47242;-62
2021/09/26 00:34:41;;;;;;;;;21.00;20.00;;;;;21.06;64.08;100797.56;2082153;28;47990;-62
2021/09/26 00:35:42;;;;;;;;;21.40;17.40;;;;;21.07;63.86;100799.31;2082167;28;47303;-62
2021/09/26 00:36:43;;;;;;;;;24.00;24.00;;;;;21.07;63.48;100799.31;2082775;28;47230;-62
2021/09/26 00:37:44;;;;;;;;;20.75;20.75;;;;;21.05;63.58;100794.00;2082056;28;47121;-62
2021/09/26 00:38:44;;;;;;;;;21.75;21.50;;;;;21.06;64.20;100802.97;2082074;28;46958;-61
2021/09/26 00:39:44;;;;;;;;;18.25;16.50;;;;;21.07;63.50;100799.31;2082652;28;47232;-61
2021/09/26 00:40:48;;;;;;;;;24.00;21.00;;;;;21.08;63.99;100806.44;2082279;28;47110;-61
2021/09/26 00:41:49;;;;;;;;;22.80;22.20;;;;;21.09;63.92;100813.59;2074118;28;48015;-61
2021/09/26 00:42:49;;;;;;;;;22.75;19.00;;;;;21.10;64.00;100823.41;2074031;28;47188;-61
2021/09/26 00:43:50;;;;;;;;;19.25;19.25;;;;;21.10;63.92;100816.19;2082009;28;48334;-61
2021/09/26 00:44:50;;;;;;;;;23.00;22.50;;;;;21.11;63.99;100827.84;2082894;28;48095;-61
2021/09/26 00:45:50;;;;;;;;;25.50;22.25;;;;;21.11;63.75;100825.16;2082349;28;47003;-61
2021/09/26 00:46:52;;;;;;;;;17.25;17.00;;;;;21.10;63.54;100821.59;2082923;28;48226;-61
2021/09/26 00:47:52;;;;;;;;;22.60;21.60;;;;;21.11;63.69;100826.00;2082549;28;47283;-61
2021/09/26 00:48:52;;;;;;;;;22.00;22.00;;;;;21.12;63.98;100834.97;2082851;28;47266;-61
2021/09/26 00:49:53;;;;;;;;;22.75;21.25;;;;;21.11;63.37;100828.72;2085633;28;47181;-61
2021/09/26 00:50:56;;;;;;;;;22.75;22.00;;;;;21.11;63.94;100830.53;2085494;28;46288;-61
2021/09/26 00:51:57;;;;;;;;;26.00;24.60;;;;;21.13;63.25;100828.63;2082368;28;48182;-61
2021/09/26 00:52:58;;;;;;;;;19.00;18.20;;;;;21.14;63.75;100833.03;2074621;28;47405;-61
2021/09/26 00:53:59;;;;;;;;;19.50;17.75;;;;;21.13;63.19;100824.06;2086659;28;45022;-61
2021/09/26 00:54:59;;;;;;;;;22.50;22.50;;;;;21.12;63.85;100819.66;2090369;28;48198;-61
2021/09/26 00:56:00;;;;;;;;;21.50;20.25;;;;;21.13;63.77;100823.22;2082404;28;45362;-61
2021/09/26 00:57:02;;;;;;;;;22.50;21.25;;;;;21.12;63.84;100819.66;2082659;28;47342;-61
2021/09/26 00:58:02;;;;;;;;;20.80;20.80;;;;;21.12;63.68;100816.94;2082852;28;48490;-61
2021/09/26 00:59:03;;;;;;;;;21.50;20.50;;;;;21.14;63.45;100825.81;2081928;28;47141;-61
2021/09/26 01:00:06;;;;;;;;;19.25;18.75;;;;;21.12;63.31;100821.47;2073877;28;47049;-61
2021/09/26 01:01:06;;;;;;;;;18.20;15.20;;;;;21.12;63.22;100821.47;2081982;28;48084;-61
2021/09/26 01:02:07;;;;;;;;;23.75;21.25;;;;;21.12;63.26;100826.88;2079556;28;48338;-61
2021/09/26 01:03:07;;;;;;;;;22.75;22.75;;;;;21.12;63.16;100826.88;2082509;28;47186;-61
2021/09/26 01:04:08;;;;;;;;;18.50;18.00;;;;;21.11;63.32;100823.31;2082684;28;48245;-61
2021/09/26 01:05:12;;;;;;;;;16.60;16.60;;;;;21.12;63.58;100824.19;2082466;28;48378;-61
2021/09/26 01:06:43;;;;;;;;;20.60;17.60;;;;;21.12;63.44;100821.47;2082835;28;47268;-61
2021/09/26 01:08:01;;;;;;;;;18.60;18.20;;;;;21.10;63.48;100824.28;2082487;28;47166;-63
2021/09/26 01:09:23;;;;;;;;;20.00;18.60;;;;;21.10;63.89;100828.81;2081970;28;46832;-61
2021/09/26 01:10:34;;;;;;;;;20.80;20.80;;;;;21.10;63.53;100823.41;2082143;28;47356;-61
2021/09/26 01:11:43;;;;;;;;;21.60;21.40;;;;;21.09;63.39;100827.09;2082011;28;47256;-61
2021/09/26 01:12:51;;;;;;;;;20.40;19.20;;;;;21.09;63.39;100824.38;2074862;28;48283;-61
2021/09/26 01:14:09;;;;;;;;;25.20;22.20;;;;;21.09;63.72;100829.78;2082392;28;47693;-61
2021/09/26 01:15:45;;;;;;;;;17.00;17.00;;;;;21.09;63.24;100830.66;2079627;28;47171;-61
2021/09/26 01:17:23;;;;;;;;;20.80;19.40;;;;;21.10;63.75;100826.13;2080381;28;47535;-61
2021/09/26 01:18:46;;;;;;;;;19.60;19.40;;;;;21.11;63.60;100830.53;2079962;28;47524;-61
2021/09/26 01:20:05;;;;;;;;;20.00;18.80;;;;;21.10;63.47;100826.97;2081999;28;47485;-61
2021/09/26 01:21:16;;;;;;;;;18.40;17.80;;;;;21.12;63.62;100821.47;2082366;28;47446;-61
2021/09/26 01:22:40;;;;;;;;;18.60;17.60;;;;;21.12;63.79;100825.03;2082270;28;47302;-61
2021/09/26 01:24:00;;;;;;;;;22.60;20.40;;;;;21.13;63.24;100832.19;2083622;28;47431;-61
2021/09/26 01:25:19;;;;;;;;;24.00;21.20;;;;;21.14;63.23;100827.66;2083666;28;47143;-61
2021/09/26 01:26:37;;;;;;;;;26.00;24.20;;;;;21.13;63.49;100832.19;2081046;28;48285;-61
2021/09/26 01:27:41;;;;;;;;;19.40;19.00;;;;;21.12;63.11;100832.28;2083910;28;47266;-61
2021/09/26 01:29:16;;;;;;;;;20.40;20.40;;;;;21.11;62.97;100833.25;2084427;28;45385;-61
2021/09/26 01:30:37;;;;;;;;;21.20;19.80;;;;;21.09;63.49;100836.03;2076003;28;48208;-61
2021/09/26 01:31:44;;;;;;;;;18.80;18.80;;;;;21.09;62.97;100837.88;2083716;28;47435;-60
2021/09/26 01:32:53;;;;;;;;;16.80;15.60;;;;;21.07;63.53;100837.94;2080710;28;47315;-61
2021/09/26 01:34:04;;;;;;;;;22.80;19.80;;;;;21.05;63.58;100834.47;2083823;28;48355;-61
2021/09/26 01:35:09;;;;;;;;;18.80;18.20;;;;;21.05;63.70;100844.41;2083992;28;46897;-61
2021/09/26 01:36:19;;;;;;;;;18.00;18.00;;;;;21.04;63.49;100839.97;2084030;28;47778;-61
2021/09/26 01:37:26;;;;;;;;;18.40;17.80;;;;;21.02;63.03;100845.47;2083833;28;48027;-61
2021/09/26 01:39:03;;;;;;;;;20.20;19.20;;;;;21.01;63.18;100838.34;2084455;28;47147;-61
2021/09/26 01:40:11;;;;;;;;;19.20;19.20;;;;;21.00;63.29;100843.84;2079608;28;48460;-61
2021/09/26 01:41:17;;;;;;;;;17.00;14.50;;;;;20.99;63.30;100840.28;2083201;28;47183;-61
2021/09/26 01:42:33;;;;;;;;;18.40;16.40;;;;;20.96;63.13;100837.78;2075847;28;47350;-61
2021/09/26 01:43:39;;;;;;;;;18.20;17.20;;;;;20.96;63.56;100843.19;2083369;28;46914;-61
2021/09/26 01:44:54;;;;;;;;;19.60;18.40;;;;;20.94;63.60;100846.91;2083517;28;46864;-61
2021/09/26 01:45:58;;;;;;;;;19.60;19.60;;;;;20.93;63.24;100843.34;2084430;28;47518;-61
2021/09/26 01:47:01;;;;;;;;;17.00;17.00;;;;;20.93;63.27;100851.44;2091418;28;48349;-61
2021/09/26 01:48:23;;;;;;;;;16.50;14.75;;;;;20.92;63.28;100849.72;2083902;28;47390;-61
2021/09/26 01:49:33;;;;;;;;;17.00;13.75;;;;;20.92;63.75;100838.06;2083727;28;48197;-61
2021/09/26 01:50:35;;;;;;;;;17.00;15.25;;;;;20.91;63.84;100842.59;2076728;28;47377;-61
2021/09/26 01:51:40;;;;;;;;;18.60;17.60;;;;;20.91;63.45;100839.88;2083287;28;47992;-61
2021/09/26 01:52:45;;;;;;;;;18.00;17.00;;;;;20.91;63.73;100842.59;2083860;28;48481;-61
2021/09/26 01:53:48;;;;;;;;;18.40;16.20;;;;;20.91;63.92;100837.19;2083063;28;48499;-61
2021/09/26 01:54:48;;;;;;;;;16.75;14.50;;;;;20.91;63.30;100834.50;2083211;28;48698;-61
2021/09/26 01:55:50;;;;;;;;;15.50;15.50;;;;;20.91;63.50;100823.69;2083025;28;48314;-61
2021/09/26 01:56:52;;;;;;;;;13.75;13.75;;;;;20.91;63.57;100836.31;2083322;28;46328;-60
2021/09/26 01:57:56;;;;;;;;;16.60;16.60;;;;;20.90;63.36;100829.19;2075048;28;47328;-61
2021/09/26 01:58:57;;;;;;;;;18.20;16.80;;;;;20.88;63.46;100829.28;2079275;28;48085;-61
2021/09/26 02:00:00;;;;;;;;;17.80;16.60;;;;;20.89;63.93;100830.16;2082630;28;47556;-61
2021/09/26 02:01:01;;;;;;;;;18.00;18.00;;;;;20.89;63.70;100827.47;2083051;28;47486;-61
2021/09/26 02:02:02;;;;;;;;;17.75;17.75;;;;;20.88;63.55;100834.69;2080913;28;45919;-61
2021/09/26 02:03:04;;;;;;;;;15.25;14.50;;;;;20.90;63.88;100829.19;2079986;28;48115;-61
2021/09/26 02:04:06;;;;;;;;;15.75;15.75;;;;;20.90;63.76;100834.59;2079358;28;47178;-61
2021/09/26 02:05:09;;;;;;;;;16.80;16.80;;;;;20.91;63.58;100831.78;2077148;28;47219;-61
2021/09/26 02:06:10;;;;;;;;;16.60;16.60;;;;;20.91;63.59;100837.19;2075787;28;47440;-61
2021/09/26 02:07:11;;;;;;;;;16.40;15.00;;;;;20.92;64.03;100829.97;2080257;28;48074;-61
2021/09/26 02:08:12;;;;;;;;;18.00;16.50;;;;;20.91;63.90;100831.78;2079580;28;47188;-61
2021/09/26 02:09:13;;;;;;;;;16.00;16.00;;;;;20.91;63.68;100834.50;2082725;28;47250;-61
2021/09/26 02:10:17;;;;;;;;;18.00;15.60;;;;;20.92;63.44;100828.13;2083284;28;47193;-61
2021/09/26 02:11:18;;;;;;;;;16.00;15.20;;;;;20.92;63.81;100833.53;2083742;28;47382;-60
2021/09/26 02:12:19;;;;;;;;;15.20;15.20;;;;;20.93;64.26;100820.91;2083342;28;48068;-61
2021/09/26 02:13:21;;;;;;;;;16.40;15.80;;;;;20.94;63.34;100828.03;2079005;28;48085;-61
2021/09/26 02:14:22;;;;;;;;;12.00;12.00;;;;;20.95;63.50;100827.06;2083291;28;48519;-61
2021/09/26 02:15:25;;;;;;;;;14.25;11.00;;;;;20.96;63.59;100820.69;2083407;28;47115;-61
2021/09/26 02:16:27;;;;;;;;;14.80;14.20;;;;;20.96;63.89;100823.41;2083853;28;47314;-61
2021/09/26 02:17:29;;;;;;;;;15.40;15.40;;;;;20.98;63.44;100830.47;2083493;28;48239;-61
2021/09/26 02:18:31;;;;;;;;;14.60;14.20;;;;;20.99;63.91;100825.94;2083768;28;47351;-61
2021/09/26 02:19:35;;;;;;;;;14.20;14.00;;;;;20.99;63.26;100825.94;2083438;28;47321;-61
2021/09/26 02:20:37;;;;;;;;;17.60;16.20;;;;;20.99;63.52;100824.09;2083703;28;47407;-61
2021/09/26 02:21:39;;;;;;;;;13.60;13.60;;;;;21.00;63.89;100828.53;2072902;28;47954;-61
2021/09/26 02:22:41;;;;;;;;;14.20;14.20;;;;;21.00;63.90;100833.91;2075102;28;47500;-61
2021/09/26 02:23:42;;;;;;;;;16.00;16.00;;;;;21.01;63.74;100824.84;2083442;28;48284;-61
2021/09/26 02:24:43;;;;;;;;;12.00;12.00;;;;;21.02;64.03;100823.91;2083359;28;45686;-61
2021/09/26 02:25:44;;;;;;;;;14.60;13.40;;;;;21.03;63.73;100833.72;2082962;28;47215;-61
2021/09/26 02:26:45;;;;;;;;;15.60;13.80;;;;;21.04;63.36;100832.75;2083800;28;47454;-61
2021/09/26 02:27:47;;;;;;;;;11.00;10.25;;;;;21.06;63.73;100829.94;2083473;28;47894;-61
2021/09/26 02:28:47;;;;;;;;;16.20;15.20;;;;;21.06;63.77;100825.41;2084127;28;45721;-61
2021/09/26 02:29:48;;;;;;;;;14.75;14.25;;;;;21.07;63.71;100831.69;2083459;28;46349;-61
2021/09/26 02:30:48;;;;;;;;;13.75;13.75;;;;;21.07;63.71;100832.53;2083098;28;47241;-61
2021/09/26 02:31:49;;;;;;;;;18.25;15.50;;;;;21.08;63.34;100822.63;2074645;28;48010;-61
2021/09/26 02:32:50;;;;;;;;;12.50;12.50;;;;;21.08;63.63;100825.31;2083041;28;48374;-61
2021/09/26 02:33:50;;;;;;;;;13.50;13.50;;;;;21.09;63.66;100827.09;2083321;28;47234;-61
2021/09/26 02:34:51;;;;;;;;;17.00;15.25;;;;;21.10;63.11;100832.38;2082921;28;47382;-61
2021/09/26 02:35:51;;;;;;;;;14.50;13.50;;;;;21.11;63.10;100826.00;2082800;28;46396;-61
2021/09/26 02:36:52;;;;;;;;;16.50;14.75;;;;;21.12;63.13;100826.88;2083805;28;45968;-61
2021/09/26 02:37:52;;;;;;;;;16.75;15.00;;;;;21.11;63.04;100826.00;2083060;28;47194;-61
2021/09/26 02:38:53;;;;;;;;;15.25;15.00;;;;;21.12;63.02;100825.03;2085908;28;46941;-61
2021/09/26 02:39:54;;;;;;;;;16.75;15.25;;;;;21.12;63.54;100826.88;2082681;28;48098;-61
2021/09/26 02:41:00;;;;;;;;;13.50;13.00;;;;;21.12;63.11;100824.19;2083672;28;46020;-61
2021/09/26 02:42:16;;;;;;;;;16.60;16.20;;;;;21.13;63.67;100820.50;2083272;28;46511;-61
2021/09/26 02:43:26;;;;;;;;;16.00;16.00;;;;;21.12;63.68;100835.84;2083504;28;47584;-61
2021/09/26 02:44:35;;;;;;;;;18.40;16.00;;;;;21.12;63.52;100822.34;2083464;28;47428;-61
2021/09/26 02:45:47;;;;;;;;;17.20;15.60;;;;;21.12;62.95;100824.19;2086196;28;48344;-61
2021/09/26 02:46:54;;;;;;;;;16.60;16.00;;;;;21.12;63.63;100819.66;2083652;28;47438;-63
2021/09/26 02:48:07;;;;;;;;;17.00;14.60;;;;;21.14;63.01;100816.84;2083320;28;47968;-61
2021/09/26 02:49:07;;;;;;;;;20.60;19.40;;;;;21.11;63.47;100815.22;2082639;28;46971;-61
2021/09/26 02:50:11;;;;;;;;;17.75;16.75;;;;;21.11;63.26;100817.06;2088391;28;47120;-61
2021/09/26 02:51:12;;;;;;;;;15.20;15.20;;;;;21.10;63.64;100813.50;2080080;28;47991;-60
2021/09/26 02:52:14;;;;;;;;;17.20;16.80;;;;;21.09;63.09;100814.47;2077989;28;48344;-61
2021/09/26 02:53:15;;;;;;;;;17.60;15.60;;;;;21.08;63.71;100811.81;2083294;28;48349;-61
2021/09/26 02:54:16;;;;;;;;;17.60;17.60;;;;;21.08;63.58;100811.81;2083439;28;45350;-61
2021/09/26 02:55:17;;;;;;;;;17.00;16.25;;;;;21.06;63.60;100811.94;2082331;28;47049;-61
2021/09/26 02:56:19;;;;;;;;;21.00;17.40;;;;;21.07;63.03;100818.19;2082954;28;47032;-60
2021/09/26 02:57:22;;;;;;;;;20.20;19.00;;;;;21.05;62.91;100815.59;2082027;28;47648;-61
2021/09/26 02:58:22;;;;;;;;;18.60;17.00;;;;;21.05;63.09;100825.53;2083617;28;48621;-61
2021/09/26 02:59:23;;;;;;;;;17.00;17.00;;;;;21.02;63.46;100826.59;2083321;28;48132;-60
2021/09/26 03:00:36;;;;;;;;;18.20;18.20;;;;;21.01;63.61;100818.59;2083485;28;47255;-61
2021/09/26 03:01:51;;;;;;;;;16.00;16.00;;;;;20.98;63.12;100821.50;2082740;28;47111;-61
2021/09/26 03:02:51;;;;;;;;;16.80;15.80;;;;;20.95;63.52;100818.97;2083752;28;47530;-61
2021/09/26 03:03:52;;;;;;;;;18.50;18.00;;;;;20.93;63.51;100821.78;2082612;28;48092;-61
2021/09/26 03:04:52;;;;;;;;;18.75;18.75;;;;;20.91;63.27;100810.22;2082829;28;48333;-60
2021/09/26 03:05:53;;;;;;;;;15.25;15.25;;;;;20.91;63.44;100817.44;2083252;28;47673;-61
2021/09/26 03:06:55;;;;;;;;;14.60;14.60;;;;;20.90;63.76;100810.31;2083421;28;47504;-61
2021/09/26 03:07:55;;;;;;;;;14.60;14.60;;;;;20.89;63.77;100813.97;2083097;28;46839;-61
2021/09/26 03:08:56;;;;;;;;;17.75;15.25;;;;;20.89;63.50;100813.97;2082763;28;46269;-62
2021/09/26 03:09:57;;;;;;;;;13.40;13.40;;;;;20.87;63.84;100808.69;2082144;28;47332;-61
2021/09/26 03:11:00;;;;;;;;;17.00;14.75;;;;;20.85;63.84;100808.78;2083609;28;48380;-61
2021/09/26 03:12:12;;;;;;;;;16.80;16.20;;;;;20.86;63.41;100810.50;2083168;28;47453;-61
2021/09/26 03:13:12;;;;;;;;;16.80;16.80;;;;;20.84;63.43;100808.88;2082826;28;48258;-61
2021/09/26 03:14:13;;;;;;;;;15.67;14.33;;;;;20.83;63.54;100802.63;2074582;28;47184;-61
2021/09/26 03:15:13;;;;;;;;;16.33;16.00;;;;;20.83;64.13;100804.41;2073015;28;47270;-61
2021/09/26 03:16:14;;;;;;;;;16.00;14.75;;;;;20.82;63.36;100800.84;2075974;28;46518;-61
2021/09/26 03:17:15;;;;;;;;;16.00;15.00;;;;;20.82;63.58;100800.00;2083110;28;47271;-61
2021/09/26 03:18:15;;;;;;;;;17.25;13.00;;;;;20.81;63.92;100796.44;2083264;28;47351;-61
2021/09/26 03:19:16;;;;;;;;;16.00;16.00;;;;;20.81;63.44;100796.44;2082486;28;47704;-61
2021/09/26 03:20:17;;;;;;;;;16.75;14.75;;;;;20.81;63.53;100795.56;2082713;28;47118;-61
2021/09/26 03:21:17;;;;;;;;;10.75;10.75;;;;;20.80;64.15;100783.91;2082288;28;48498;-61
2021/09/26 03:22:18;;;;;;;;;15.75;15.50;;;;;20.79;63.89;100789.41;2083270;28;48087;-61
2021/09/26 03:23:19;;;;;;;;;16.50;16.25;;;;;20.76;63.99;100793.16;2082910;28;48409;-61
2021/09/26 03:24:19;;;;;;;;;13.80;13.80;;;;;20.75;63.78;100785.19;2082757;28;45649;-61
2021/09/26 03:25:20;;;;;;;;;16.25;15.75;;;;;20.74;64.19;100784.31;2083163;28;45389;-61
2021/09/26 03:26:21;;;;;;;;;16.00;16.00;;;;;20.74;64.35;100787.00;2083111;28;47217;-61
2021/09/26 03:27:21;;;;;;;;;19.75;17.25;;;;;20.72;63.69;100780.84;2083227;28;47404;-61
2021/09/26 03:28:22;;;;;;;;;18.75;16.00;;;;;20.70;64.24;100780.06;2083245;28;47128;-61
2021/09/26 03:29:22;;;;;;;;;18.00;15.75;;;;;20.69;64.15;100783.72;2082517;28;47055;-61
2021/09/26 03:30:23;;;;;;;;;17.25;16.00;;;;;20.69;64.32;100778.31;2082682;28;47474;-61
2021/09/26 03:31:24;;;;;;;;;16.75;16.25;;;;;20.68;64.20;100776.59;2082917;28;47368;-61
2021/09/26 03:32:24;;;;;;;;;13.00;13.00;;;;;20.69;64.20;100774.75;2083166;28;47108;-61
2021/09/26 03:33:25;;;;;;;;;17.00;14.50;;;;;20.69;64.15;100766.66;2083227;28;47426;-61
2021/09/26 03:34:25;;;;;;;;;16.50;14.25;;;;;20.68;63.83;100765.81;2083047;28;47282;-61
2021/09/26 03:35:26;;;;;;;;;19.00;19.00;;;;;20.68;64.41;100770.34;2083125;28;48243;-61
2021/09/26 03:36:26;;;;;;;;;17.50;14.75;;;;;20.67;64.02;100772.16;2083265;28;47106;-61
2021/09/26 03:37:27;;;;;;;;;19.50;15.75;;;;;20.68;63.93;100767.63;2083145;28;48215;-61
2021/09/26 03:38:27;;;;;;;;;16.25;16.25;;;;;20.67;64.07;100772.16;2083898;28;47167;-61
2021/09/26 03:39:28;;;;;;;;;20.50;19.00;;;;;20.67;64.06;100769.47;2091623;28;47075;-61
2021/09/26 03:40:29;;;;;;;;;18.50;18.50;;;;;20.66;64.11;100774.97;2090762;28;48184;-61
2021/09/26 03:41:29;;;;;;;;;18.75;18.00;;;;;20.65;64.33;100773.22;2083040;28;48086;-61
2021/09/26 03:42:30;;;;;;;;;19.50;18.75;;;;;20.64;64.54;100780.44;2082391;28;47050;-61
2021/09/26 03:43:31;;;;;;;;;20.75;20.75;;;;;20.65;64.44;100781.31;2081968;28;47375;-63
2021/09/26 03:44:31;;;;;;;;;20.00;16.50;;;;;20.64;63.91;100779.59;2083379;28;47447;-61
2021/09/26 03:45:32;;;;;;;;;16.00;16.00;;;;;20.63;64.09;100780.56;2084172;28;47203;-61
2021/09/26 03:46:32;;;;;;;;;18.50;17.50;;;;;20.62;64.17;100778.81;2082912;28;47961;-61
2021/09/26 03:47:33;;;;;;;;;19.75;17.00;;;;;20.63;64.25;100784.13;2080009;28;48153;-61
2021/09/26 03:48:33;;;;;;;;;16.50;15.50;;;;;20.63;64.27;100785.94;2083292;28;47173;-61
2021/09/26 03:49:34;;;;;;;;;18.00;16.50;;;;;20.63;64.40;100788.63;2083469;28;47306;-61
2021/09/26 03:50:36;;;;;;;;;19.00;16.25;;;;;20.63;64.17;100780.56;2088454;28;47216;-61
2021/09/26 03:51:37;;;;;;;;;19.00;16.80;;;;;20.64;64.08;100785.84;2082215;28;45494;-61
2021/09/26 03:52:38;;;;;;;;;16.75;15.75;;;;;20.64;64.22;100775.06;2082438;28;48324;-61
2021/09/26 03:53:38;;;;;;;;;17.40;17.40;;;;;20.65;64.21;100782.19;2082782;28;48392;-61
2021/09/26 03:54:40;;;;;;;;;18.25;18.25;;;;;20.66;64.75;100783.03;2082457;28;47316;-62
2021/09/26 03:55:40;;;;;;;;;16.80;16.80;;;;;20.67;64.25;100785.66;2082059;28;45345;-61
2021/09/26 03:56:41;;;;;;;;;15.75;15.75;;;;;20.68;64.79;100783.81;2083007;28;47243;-61
2021/09/26 03:57:43;;;;;;;;;18.25;15.50;;;;;20.68;64.66;100786.50;2082929;28;47217;-61
2021/09/26 03:58:43;;;;;;;;;18.20;18.20;;;;;20.68;64.47;100779.28;2083140;28;47388;-61
2021/09/26 03:59:44;;;;;;;;;17.25;15.75;;;;;20.69;64.70;100778.31;2082975;28;47330;-61
2021/09/26 04:00:44;;;;;;;;;18.50;18.00;;;;;20.69;64.61;100786.41;2081678;28;48343;-61
2021/09/26 04:01:45;;;;;;;;;20.00;18.50;;;;;20.70;64.71;100785.44;2082605;28;48157;-61
2021/09/26 04:02:45;;;;;;;;;17.20;15.60;;;;;20.70;64.25;100780.06;2079888;28;48055;-61
2021/09/26 04:03:46;;;;;;;;;20.00;19.25;;;;;20.70;64.59;100774.66;2081874;28;48445;-61
2021/09/26 04:04:46;;;;;;;;;16.50;16.50;;;;;20.70;64.08;100774.66;2083061;28;47343;-61
2021/09/26 04:05:47;;;;;;;;;16.50;16.00;;;;;20.71;63.99;100779.13;2082241;28;46720;-61
2021/09/26 04:06:48;;;;;;;;;18.00;17.00;;;;;20.72;64.48;100780.84;2082392;28;48016;-61
2021/09/26 04:07:48;;;;;;;;;17.25;16.25;;;;;20.71;64.62;100775.53;2082079;28;46985;-61
2021/09/26 04:08:49;;;;;;;;;15.50;15.00;;;;;20.71;64.54;100771.03;2082423;28;48518;-61
2021/09/26 04:09:49;;;;;;;;;17.00;17.00;;;;;20.71;64.02;100771.03;2082653;28;47736;-60
2021/09/26 04:10:50;;;;;;;;;19.00;16.75;;;;;20.71;64.35;100772.81;2082484;28;47423;-61
2021/09/26 04:11:50;;;;;;;;;15.75;14.75;;;;;20.71;63.93;100772.81;2082150;28;47381;-61
2021/09/26 04:12:51;;;;;;;;;16.50;16.25;;;;;20.69;63.95;100764.84;2082236;28;47214;-61
2021/09/26 04:13:51;;;;;;;;;16.75;16.50;;;;;20.69;63.93;100770.22;2082448;28;47347;-61
2021/09/26 04:14:52;;;;;;;;;20.75;18.00;;;;;20.68;64.08;100763.09;2074047;28;47007;-61
2021/09/26 04:15:52;;;;;;;;;14.50;14.50;;;;;20.68;64.05;100763.09;2065859;28;45368;-61
2021/09/26 04:16:52;;;;;;;;;16.75;16.75;;;;;20.67;64.64;100761.38;2082214;28;47087;-61
2021/09/26 04:17:53;;;;;;;;;17.50;17.25;;;;;20.68;64.08;100759.53;2082815;28;48217;-61
2021/09/26 04:18:53;;;;;;;;;13.50;13.50;;;;;20.67;64.35;100763.22;2082474;28;47395;-60
2021/09/26 04:19:54;;;;;;;;;16.75;16.75;;;;;20.68;64.24;100763.09;2082189;28;48270;-61
2021/09/26 04:20:55;;;;;;;;;16.00;15.50;;;;;20.68;64.48;100763.09;2082936;28;46495;-61
2021/09/26 04:21:55;;;;;;;;;16.00;14.60;;;;;20.67;64.03;100766.75;2082998;28;47477;-60
2021/09/26 04:22:56;;;;;;;;;16.75;16.75;;;;;20.68;64.47;100768.50;2082906;28;47341;-61
2021/09/26 04:23:56;;;;;;;;;14.75;14.75;;;;;20.67;64.04;100769.47;2082977;28;47327;-61
2021/09/26 04:24:57;;;;;;;;;15.75;13.50;;;;;20.68;64.04;100764.94;2082675;28;48009;-61
2021/09/26 04:25:57;;;;;;;;;18.50;17.75;;;;;20.69;63.88;100763.97;2082662;28;48390;-62
2021/09/26 04:26:58;;;;;;;;;15.00;15.00;;;;;20.69;64.45;100763.97;2082800;28;47501;-60
2021/09/26 04:27:59;;;;;;;;;14.75;14.25;;;;;20.68;63.93;100763.09;2082742;28;47493;-60
2021/09/26 04:28:59;;;;;;;;;16.50;14.25;;;;;20.68;63.87;100757.72;2082906;28;47242;-60
2021/09/26 04:29:59;;;;;;;;;16.00;15.25;;;;;20.68;63.94;100760.41;2082840;28;48029;-61
2021/09/26 04:31:00;;;;;;;;;16.25;15.75;;;;;20.68;64.01;100756.84;2082763;28;47677;-61
2021/09/26 04:32:02;;;;;;;;;15.75;15.50;;;;;20.68;64.33;100757.72;2083149;28;45355;-61
2021/09/26 04:33:03;;;;;;;;;15.40;15.20;;;;;20.67;64.29;100755.97;2082590;28;46582;-61
2021/09/26 04:34:04;;;;;;;;;15.60;15.60;;;;;20.67;63.84;100758.69;2083541;28;48350;-61
2021/09/26 04:35:06;;;;;;;;;14.00;14.00;;;;;20.67;63.88;100760.50;2082780;28;47393;-61
2021/09/26 04:36:07;;;;;;;;;16.40;14.80;;;;;20.66;64.02;100759.66;2082889;28;48488;-61
2021/09/26 04:37:08;;;;;;;;;14.25;14.25;;;;;20.67;64.26;100760.50;2082433;28;47218;-61
2021/09/26 04:38:08;;;;;;;;;17.20;15.20;;;;;20.68;64.23;100754.16;2082873;28;47518;-61
2021/09/26 04:39:08;;;;;;;;;20.25;17.50;;;;;20.67;64.02;100761.38;2082294;28;47191;-60
2021/09/26 04:40:10;;;;;;;;;16.25;16.25;;;;;20.67;64.36;100758.69;2083085;28;47702;-61
2021/09/26 04:41:10;;;;;;;;;15.40;15.00;;;;;20.67;64.49;100753.28;2082594;28;47197;-60
2021/09/26 04:42:11;;;;;;;;;16.33;15.00;;;;;20.67;64.40;100750.59;2081883;28;47370;-61
2021/09/26 04:43:11;;;;;;;;;16.75;15.25;;;;;20.66;64.03;100751.56;2082230;28;48199;-61
2021/09/26 04:44:12;;;;;;;;;15.00;15.00;;;;;20.65;64.58;100752.53;2082779;28;47348;-61
2021/09/26 04:45:12;;;;;;;;;18.00;17.00;;;;;20.66;64.36;100748.00;2084097;28;45224;-60
2021/09/26 04:46:13;;;;;;;;;14.00;14.00;;;;;20.66;64.13;100748.84;2081970;28;46811;-61
2021/09/26 04:47:13;;;;;;;;;17.00;16.00;;;;;20.66;64.41;100748.00;2073566;28;47405;-61